sensor_id;sensor_type;location;lat;lon;timestamp;P1;durP1;ratioP1;P2;durP2;ratioP2
23169;SDS011;11753;43.144;24.714;2023-05-10T00:00:55;11.52;;;9.50;;
23169;SDS011;11753;43.144;24.714;2023-05-10T00:01:56;10.43;;;9.02;;
23169;SDS011;11753;43.144;24.714;2023-05-10T00:02:58;12.13;;;9.98;;
23169;SDS011;11753;43.144;24.714;2023-05-10T00:03:59;12.18;;;9.80;;
23169;SDS011;11753;43.144;24.714;2023-05-10T00:05:00;12.32;;;10.27;;
23169;SDS011;11753;43.144;24.714;2023-05-10T00:06:01;12.77;;;9.60;;
23169;SDS011;11753;43.144;24.714;2023-05-10T00:07:03;13.13;;;9.95;;
23169;SDS011;11753;43.144;24.714;2023-05-10T00:08:03;11.57;;;9.50;;
23169;SDS011;11753;43.144;24.714;2023-05-10T00:09:04;11.48;;;9.13;;
23169;SDS011;11753;43.144;24.714;2023-05-10T00:10:08;11.35;;;9.68;;
23169;SDS011;11753;43.144;24.714;2023-05-10T00:11:10;10.38;;;8.90;;
23169;SDS011;11753;43.144;24.714;2023-05-10T00:12:11;13.13;;;10.75;;
23169;SDS011;11753;43.144;24.714;2023-05-10T00:13:12;13.32;;;9.98;;
23169;SDS011;11753;43.144;24.714;2023-05-10T00:14:13;12.50;;;9.75;;
23169;SDS011;11753;43.144;24.714;2023-05-10T00:15:13;13.25;;;10.80;;
23169;SDS011;11753;43.144;24.714;2023-05-10T00:16:14;15.43;;;10.05;;
23169;SDS011;11753;43.144;24.714;2023-05-10T00:17:15;15.15;;;10.32;;
23169;SDS011;11753;43.144;24.714;2023-05-10T00:18:15;11.05;;;9.23;;
23169;SDS011;11753;43.144;24.714;2023-05-10T00:19:16;12.82;;;9.30;;
23169;SDS011;11753;43.144;24.714;2023-05-10T00:20:17;12.90;;;9.75;;
23169;SDS011;11753;43.144;24.714;2023-05-10T00:21:18;12.90;;;10.70;;
23169;SDS011;11753;43.144;24.714;2023-05-10T00:22:19;13.32;;;10.48;;
23169;SDS011;11753;43.144;24.714;2023-05-10T00:23:20;14.63;;;10.02;;
23169;SDS011;11753;43.144;24.714;2023-05-10T00:24:21;11.82;;;9.52;;
23169;SDS011;11753;43.144;24.714;2023-05-10T00:25:22;13.40;;;9.38;;
23169;SDS011;11753;43.144;24.714;2023-05-10T00:26:22;11.80;;;9.35;;
23169;SDS011;11753;43.144;24.714;2023-05-10T00:27:23;11.75;;;9.65;;
23169;SDS011;11753;43.144;24.714;2023-05-10T00:28:23;12.52;;;9.25;;
23169;SDS011;11753;43.144;24.714;2023-05-10T00:29:24;12.77;;;9.38;;
23169;SDS011;11753;43.144;24.714;2023-05-10T00:30:24;10.38;;;8.77;;
23169;SDS011;11753;43.144;24.714;2023-05-10T00:31:25;11.63;;;9.77;;
23169;SDS011;11753;43.144;24.714;2023-05-10T00:32:26;10.43;;;8.38;;
23169;SDS011;11753;43.144;24.714;2023-05-10T00:33:27;11.27;;;9.15;;
23169;SDS011;11753;43.144;24.714;2023-05-10T00:34:28;11.18;;;8.90;;
23169;SDS011;11753;43.144;24.714;2023-05-10T00:35:29;10.65;;;9.30;;
23169;SDS011;11753;43.144;24.714;2023-05-10T00:36:30;11.77;;;8.60;;
23169;SDS011;11753;43.144;24.714;2023-05-10T00:37:31;10.10;;;8.75;;
23169;SDS011;11753;43.144;24.714;2023-05-10T00:38:33;10.48;;;8.93;;
23169;SDS011;11753;43.144;24.714;2023-05-10T00:39:34;10.38;;;9.15;;
23169;SDS011;11753;43.144;24.714;2023-05-10T00:40:35;11.43;;;9.25;;
23169;SDS011;11753;43.144;24.714;2023-05-10T00:41:37;11.20;;;8.77;;
23169;SDS011;11753;43.144;24.714;2023-05-10T00:42:38;10.23;;;8.88;;
23169;SDS011;11753;43.144;24.714;2023-05-10T00:43:39;10.18;;;8.98;;
23169;SDS011;11753;43.144;24.714;2023-05-10T00:44:42;10.95;;;9.40;;
23169;SDS011;11753;43.144;24.714;2023-05-10T00:45:43;11.95;;;9.13;;
23169;SDS011;11753;43.144;24.714;2023-05-10T00:46:45;9.88;;;8.25;;
23169;SDS011;11753;43.144;24.714;2023-05-10T00:47:46;11.88;;;8.80;;
23169;SDS011;11753;43.144;24.714;2023-05-10T00:48:47;11.75;;;9.93;;
23169;SDS011;11753;43.144;24.714;2023-05-10T00:49:49;10.35;;;9.25;;
23169;SDS011;11753;43.144;24.714;2023-05-10T00:50:50;11.15;;;8.95;;
23169;SDS011;11753;43.144;24.714;2023-05-10T00:51:51;12.43;;;9.07;;
23169;SDS011;11753;43.144;24.714;2023-05-10T00:52:52;10.70;;;8.75;;
23169;SDS011;11753;43.144;24.714;2023-05-10T00:53:53;10.32;;;8.18;;
23169;SDS011;11753;43.144;24.714;2023-05-10T00:54:56;10.75;;;8.27;;
23169;SDS011;11753;43.144;24.714;2023-05-10T00:55:57;9.75;;;7.97;;
23169;SDS011;11753;43.144;24.714;2023-05-10T00:56:58;13.15;;;9.38;;
23169;SDS011;11753;43.144;24.714;2023-05-10T00:57:59;10.63;;;8.20;;
23169;SDS011;11753;43.144;24.714;2023-05-10T00:59:00;8.95;;;7.88;;
23169;SDS011;11753;43.144;24.714;2023-05-10T01:00:01;9.95;;;7.72;;
23169;SDS011;11753;43.144;24.714;2023-05-10T01:01:03;8.98;;;7.57;;
23169;SDS011;11753;43.144;24.714;2023-05-10T01:02:05;9.95;;;7.97;;
23169;SDS011;11753;43.144;24.714;2023-05-10T01:03:07;11.68;;;8.52;;
23169;SDS011;11753;43.144;24.714;2023-05-10T01:04:08;9.70;;;8.70;;
23169;SDS011;11753;43.144;24.714;2023-05-10T01:05:11;9.70;;;7.82;;
23169;SDS011;11753;43.144;24.714;2023-05-10T01:06:13;10.18;;;8.63;;
23169;SDS011;11753;43.144;24.714;2023-05-10T01:07:14;12.07;;;8.80;;
23169;SDS011;11753;43.144;24.714;2023-05-10T01:08:15;9.00;;;7.60;;
23169;SDS011;11753;43.144;24.714;2023-05-10T01:09:15;11.68;;;8.82;;
23169;SDS011;11753;43.144;24.714;2023-05-10T01:10:17;9.60;;;7.68;;
23169;SDS011;11753;43.144;24.714;2023-05-10T01:11:18;10.00;;;8.32;;
23169;SDS011;11753;43.144;24.714;2023-05-10T01:12:19;10.13;;;8.60;;
23169;SDS011;11753;43.144;24.714;2023-05-10T01:13:33;10.02;;;7.93;;
23169;SDS011;11753;43.144;24.714;2023-05-10T01:14:36;10.90;;;9.00;;
23169;SDS011;11753;43.144;24.714;2023-05-10T01:15:37;10.88;;;7.78;;
23169;SDS011;11753;43.144;24.714;2023-05-10T01:16:40;10.77;;;7.90;;
23169;SDS011;11753;43.144;24.714;2023-05-10T01:17:44;12.10;;;8.45;;
23169;SDS011;11753;43.144;24.714;2023-05-10T01:18:47;8.65;;;7.75;;
23169;SDS011;11753;43.144;24.714;2023-05-10T01:19:49;10.60;;;8.18;;
23169;SDS011;11753;43.144;24.714;2023-05-10T01:20:54;11.70;;;8.50;;
23169;SDS011;11753;43.144;24.714;2023-05-10T01:33:59;11.48;;;8.65;;
23169;SDS011;11753;43.144;24.714;2023-05-10T01:36:44;12.00;;;9.40;;
23169;SDS011;11753;43.144;24.714;2023-05-10T01:38:10;11.95;;;8.05;;
23169;SDS011;11753;43.144;24.714;2023-05-10T01:42:03;10.55;;;8.60;;
23169;SDS011;11753;43.144;24.714;2023-05-10T01:43:08;10.55;;;9.25;;
23169;SDS011;11753;43.144;24.714;2023-05-10T01:45:52;12.38;;;8.88;;
23169;SDS011;11753;43.144;24.714;2023-05-10T01:48:05;12.90;;;9.70;;
23169;SDS011;11753;43.144;24.714;2023-05-10T01:50:41;10.70;;;8.80;;
23169;SDS011;11753;43.144;24.714;2023-05-10T01:51:48;9.82;;;8.65;;
23169;SDS011;11753;43.144;24.714;2023-05-10T01:52:56;11.15;;;8.95;;
23169;SDS011;11753;43.144;24.714;2023-05-10T01:54:02;10.25;;;8.25;;
23169;SDS011;11753;43.144;24.714;2023-05-10T01:55:06;9.07;;;8.00;;
23169;SDS011;11753;43.144;24.714;2023-05-10T01:56:09;10.85;;;8.60;;
23169;SDS011;11753;43.144;24.714;2023-05-10T01:57:13;11.85;;;8.15;;
23169;SDS011;11753;43.144;24.714;2023-05-10T01:58:25;10.60;;;8.32;;
23169;SDS011;11753;43.144;24.714;2023-05-10T01:59:30;12.02;;;8.95;;
23169;SDS011;11753;43.144;24.714;2023-05-10T02:00:44;10.02;;;8.25;;
23169;SDS011;11753;43.144;24.714;2023-05-10T02:01:47;14.00;;;9.50;;
23169;SDS011;11753;43.144;24.714;2023-05-10T02:02:48;11.80;;;9.55;;
23169;SDS011;11753;43.144;24.714;2023-05-10T02:03:50;13.02;;;8.43;;
23169;SDS011;11753;43.144;24.714;2023-05-10T02:04:52;14.15;;;9.30;;
23169;SDS011;11753;43.144;24.714;2023-05-10T02:05:55;9.20;;;7.80;;
23169;SDS011;11753;43.144;24.714;2023-05-10T02:06:57;11.32;;;8.98;;
23169;SDS011;11753;43.144;24.714;2023-05-10T02:07:58;11.27;;;9.10;;
23169;SDS011;11753;43.144;24.714;2023-05-10T02:09:01;14.10;;;10.60;;
23169;SDS011;11753;43.144;24.714;2023-05-10T02:10:06;11.75;;;9.68;;
23169;SDS011;11753;43.144;24.714;2023-05-10T02:11:08;13.02;;;9.57;;
23169;SDS011;11753;43.144;24.714;2023-05-10T02:12:13;11.82;;;9.40;;
23169;SDS011;11753;43.144;24.714;2023-05-10T02:13:15;12.10;;;9.18;;
23169;SDS011;11753;43.144;24.714;2023-05-10T02:14:16;12.20;;;9.57;;
23169;SDS011;11753;43.144;24.714;2023-05-10T02:15:20;15.10;;;10.68;;
23169;SDS011;11753;43.144;24.714;2023-05-10T02:16:25;12.43;;;9.05;;
23169;SDS011;11753;43.144;24.714;2023-05-10T02:17:31;10.75;;;9.18;;
23169;SDS011;11753;43.144;24.714;2023-05-10T02:18:33;12.50;;;9.30;;
23169;SDS011;11753;43.144;24.714;2023-05-10T02:19:38;14.82;;;9.77;;
23169;SDS011;11753;43.144;24.714;2023-05-10T02:20:41;11.82;;;9.52;;
23169;SDS011;11753;43.144;24.714;2023-05-10T02:21:44;13.73;;;10.45;;
23169;SDS011;11753;43.144;24.714;2023-05-10T02:22:47;13.43;;;11.02;;
23169;SDS011;11753;43.144;24.714;2023-05-10T02:23:51;13.63;;;10.10;;
23169;SDS011;11753;43.144;24.714;2023-05-10T02:24:56;13.27;;;11.00;;
23169;SDS011;11753;43.144;24.714;2023-05-10T02:25:58;15.77;;;10.82;;
23169;SDS011;11753;43.144;24.714;2023-05-10T02:27:02;15.65;;;11.30;;
23169;SDS011;11753;43.144;24.714;2023-05-10T02:28:05;15.38;;;11.57;;
23169;SDS011;11753;43.144;24.714;2023-05-10T02:29:07;17.58;;;12.57;;
23169;SDS011;11753;43.144;24.714;2023-05-10T02:30:10;15.07;;;10.98;;
23169;SDS011;11753;43.144;24.714;2023-05-10T02:31:12;17.38;;;11.98;;
23169;SDS011;11753;43.144;24.714;2023-05-10T02:32:14;14.45;;;12.30;;
23169;SDS011;11753;43.144;24.714;2023-05-10T02:33:17;16.75;;;12.10;;
23169;SDS011;11753;43.144;24.714;2023-05-10T02:34:19;17.80;;;13.63;;
23169;SDS011;11753;43.144;24.714;2023-05-10T02:35:22;15.98;;;11.45;;
23169;SDS011;11753;43.144;24.714;2023-05-10T02:36:24;18.48;;;12.02;;
23169;SDS011;11753;43.144;24.714;2023-05-10T02:37:28;18.45;;;13.13;;
23169;SDS011;11753;43.144;24.714;2023-05-10T02:38:29;15.90;;;13.75;;
23169;SDS011;11753;43.144;24.714;2023-05-10T02:39:35;18.90;;;13.40;;
23169;SDS011;11753;43.144;24.714;2023-05-10T02:40:36;15.25;;;12.52;;
23169;SDS011;11753;43.144;24.714;2023-05-10T02:41:40;13.32;;;11.10;;
23169;SDS011;11753;43.144;24.714;2023-05-10T02:42:42;14.10;;;11.18;;
23169;SDS011;11753;43.144;24.714;2023-05-10T02:43:45;15.30;;;12.68;;
23169;SDS011;11753;43.144;24.714;2023-05-10T02:44:48;14.55;;;11.95;;
23169;SDS011;11753;43.144;24.714;2023-05-10T02:45:51;14.10;;;11.95;;
23169;SDS011;11753;43.144;24.714;2023-05-10T02:46:52;17.25;;;11.82;;
23169;SDS011;11753;43.144;24.714;2023-05-10T02:47:53;15.55;;;11.43;;
23169;SDS011;11753;43.144;24.714;2023-05-10T02:48:54;15.98;;;12.70;;
23169;SDS011;11753;43.144;24.714;2023-05-10T02:49:55;13.45;;;11.27;;
23169;SDS011;11753;43.144;24.714;2023-05-10T02:50:58;17.23;;;11.80;;
23169;SDS011;11753;43.144;24.714;2023-05-10T02:52:04;16.88;;;11.55;;
23169;SDS011;11753;43.144;24.714;2023-05-10T02:53:10;14.27;;;11.35;;
23169;SDS011;11753;43.144;24.714;2023-05-10T02:54:20;14.90;;;11.45;;
23169;SDS011;11753;43.144;24.714;2023-05-10T02:55:30;15.80;;;11.60;;
23169;SDS011;11753;43.144;24.714;2023-05-10T02:56:35;13.77;;;10.57;;
23169;SDS011;11753;43.144;24.714;2023-05-10T02:57:42;13.35;;;10.68;;
23169;SDS011;11753;43.144;24.714;2023-05-10T02:58:49;12.75;;;10.27;;
23169;SDS011;11753;43.144;24.714;2023-05-10T02:59:49;13.95;;;10.57;;
23169;SDS011;11753;43.144;24.714;2023-05-10T03:00:50;12.73;;;10.82;;
23169;SDS011;11753;43.144;24.714;2023-05-10T03:01:51;10.40;;;9.13;;
23169;SDS011;11753;43.144;24.714;2023-05-10T03:02:52;14.75;;;10.80;;
23169;SDS011;11753;43.144;24.714;2023-05-10T03:03:53;15.95;;;11.18;;
23169;SDS011;11753;43.144;24.714;2023-05-10T03:04:54;13.73;;;10.93;;
23169;SDS011;11753;43.144;24.714;2023-05-10T03:05:55;13.98;;;10.63;;
23169;SDS011;11753;43.144;24.714;2023-05-10T03:06:56;12.88;;;10.75;;
23169;SDS011;11753;43.144;24.714;2023-05-10T03:07:57;12.65;;;10.45;;
23169;SDS011;11753;43.144;24.714;2023-05-10T03:08:58;14.48;;;10.52;;
23169;SDS011;11753;43.144;24.714;2023-05-10T03:10:00;17.95;;;10.45;;
23169;SDS011;11753;43.144;24.714;2023-05-10T03:12:41;18.50;;;12.02;;
23169;SDS011;11753;43.144;24.714;2023-05-10T03:14:13;12.65;;;9.98;;
23169;SDS011;11753;43.144;24.714;2023-05-10T03:16:24;15.63;;;10.57;;
23169;SDS011;11753;43.144;24.714;2023-05-10T03:17:11;15.50;;;9.75;;
23169;SDS011;11753;43.144;24.714;2023-05-10T03:18:21;11.65;;;9.35;;
23169;SDS011;11753;43.144;24.714;2023-05-10T03:19:27;15.48;;;10.55;;
23169;SDS011;11753;43.144;24.714;2023-05-10T03:21:40;17.80;;;10.85;;
23169;SDS011;11753;43.144;24.714;2023-05-10T03:22:50;13.77;;;10.50;;
23169;SDS011;11753;43.144;24.714;2023-05-10T03:24:05;19.70;;;11.88;;
23169;SDS011;11753;43.144;24.714;2023-05-10T03:25:08;21.58;;;10.85;;
23169;SDS011;11753;43.144;24.714;2023-05-10T03:26:17;14.07;;;9.55;;
23169;SDS011;11753;43.144;24.714;2023-05-10T03:27:25;12.52;;;10.07;;
23169;SDS011;11753;43.144;24.714;2023-05-10T03:28:27;14.30;;;9.82;;
23169;SDS011;11753;43.144;24.714;2023-05-10T03:29:28;11.85;;;9.82;;
23169;SDS011;11753;43.144;24.714;2023-05-10T03:30:30;12.88;;;9.27;;
23169;SDS011;11753;43.144;24.714;2023-05-10T03:31:33;12.35;;;9.93;;
23169;SDS011;11753;43.144;24.714;2023-05-10T03:32:34;12.63;;;9.30;;
23169;SDS011;11753;43.144;24.714;2023-05-10T03:33:35;11.80;;;9.38;;
23169;SDS011;11753;43.144;24.714;2023-05-10T03:34:36;11.98;;;9.25;;
23169;SDS011;11753;43.144;24.714;2023-05-10T03:35:42;13.88;;;10.25;;
23169;SDS011;11753;43.144;24.714;2023-05-10T03:36:46;11.98;;;9.70;;
23169;SDS011;11753;43.144;24.714;2023-05-10T03:37:46;15.82;;;9.80;;
23169;SDS011;11753;43.144;24.714;2023-05-10T03:38:47;10.43;;;8.65;;
23169;SDS011;11753;43.144;24.714;2023-05-10T03:39:48;12.35;;;9.25;;
23169;SDS011;11753;43.144;24.714;2023-05-10T03:40:49;14.45;;;10.50;;
23169;SDS011;11753;43.144;24.714;2023-05-10T03:41:50;18.60;;;11.30;;
23169;SDS011;11753;43.144;24.714;2023-05-10T03:42:50;13.10;;;9.85;;
23169;SDS011;11753;43.144;24.714;2023-05-10T03:43:51;12.73;;;9.48;;
23169;SDS011;11753;43.144;24.714;2023-05-10T03:44:52;11.73;;;8.57;;
23169;SDS011;11753;43.144;24.714;2023-05-10T03:45:53;12.13;;;8.70;;
23169;SDS011;11753;43.144;24.714;2023-05-10T03:46:54;13.15;;;9.35;;
23169;SDS011;11753;43.144;24.714;2023-05-10T03:47:57;12.02;;;8.40;;
23169;SDS011;11753;43.144;24.714;2023-05-10T03:48:58;11.32;;;8.10;;
23169;SDS011;11753;43.144;24.714;2023-05-10T03:49:59;12.57;;;8.90;;
23169;SDS011;11753;43.144;24.714;2023-05-10T03:51:00;9.57;;;8.13;;
23169;SDS011;11753;43.144;24.714;2023-05-10T03:52:01;11.38;;;9.07;;
23169;SDS011;11753;43.144;24.714;2023-05-10T03:53:02;13.73;;;9.40;;
23169;SDS011;11753;43.144;24.714;2023-05-10T03:54:03;10.77;;;8.30;;
23169;SDS011;11753;43.144;24.714;2023-05-10T03:55:05;13.88;;;9.20;;
23169;SDS011;11753;43.144;24.714;2023-05-10T03:56:06;11.95;;;8.82;;
23169;SDS011;11753;43.144;24.714;2023-05-10T03:57:07;13.02;;;9.20;;
23169;SDS011;11753;43.144;24.714;2023-05-10T03:58:11;13.48;;;9.20;;
23169;SDS011;11753;43.144;24.714;2023-05-10T03:59:12;12.18;;;9.02;;
23169;SDS011;11753;43.144;24.714;2023-05-10T04:00:13;12.80;;;9.43;;
23169;SDS011;11753;43.144;24.714;2023-05-10T04:01:14;12.68;;;8.85;;
23169;SDS011;11753;43.144;24.714;2023-05-10T04:02:15;11.27;;;8.40;;
23169;SDS011;11753;43.144;24.714;2023-05-10T04:03:16;11.85;;;8.05;;
23169;SDS011;11753;43.144;24.714;2023-05-10T04:04:18;9.73;;;8.25;;
23169;SDS011;11753;43.144;24.714;2023-05-10T04:05:21;13.70;;;8.55;;
23169;SDS011;11753;43.144;24.714;2023-05-10T04:06:22;16.17;;;9.82;;
23169;SDS011;11753;43.144;24.714;2023-05-10T04:07:22;12.80;;;8.80;;
23169;SDS011;11753;43.144;24.714;2023-05-10T04:08:24;14.50;;;8.40;;
23169;SDS011;11753;43.144;24.714;2023-05-10T04:09:25;15.32;;;9.82;;
23169;SDS011;11753;43.144;24.714;2023-05-10T04:10:26;14.32;;;8.68;;
23169;SDS011;11753;43.144;24.714;2023-05-10T04:11:27;15.77;;;9.52;;
23169;SDS011;11753;43.144;24.714;2023-05-10T04:12:28;11.82;;;9.32;;
23169;SDS011;11753;43.144;24.714;2023-05-10T04:13:28;13.82;;;10.60;;
23169;SDS011;11753;43.144;24.714;2023-05-10T04:14:29;11.75;;;8.82;;
23169;SDS011;11753;43.144;24.714;2023-05-10T04:15:30;11.57;;;8.15;;
23169;SDS011;11753;43.144;24.714;2023-05-10T04:16:31;11.82;;;8.73;;
23169;SDS011;11753;43.144;24.714;2023-05-10T04:17:32;11.93;;;9.70;;
23169;SDS011;11753;43.144;24.714;2023-05-10T04:18:33;15.65;;;10.52;;
23169;SDS011;11753;43.144;24.714;2023-05-10T04:19:35;12.23;;;9.77;;
23169;SDS011;11753;43.144;24.714;2023-05-10T04:20:36;13.60;;;8.85;;
23169;SDS011;11753;43.144;24.714;2023-05-10T04:21:36;10.82;;;7.97;;
23169;SDS011;11753;43.144;24.714;2023-05-10T04:22:38;13.27;;;8.50;;
23169;SDS011;11753;43.144;24.714;2023-05-10T04:23:39;10.32;;;8.10;;
23169;SDS011;11753;43.144;24.714;2023-05-10T04:24:40;13.75;;;9.43;;
23169;SDS011;11753;43.144;24.714;2023-05-10T04:25:41;10.32;;;8.35;;
23169;SDS011;11753;43.144;24.714;2023-05-10T04:26:42;11.30;;;7.80;;
23169;SDS011;11753;43.144;24.714;2023-05-10T04:27:43;12.25;;;8.10;;
23169;SDS011;11753;43.144;24.714;2023-05-10T04:28:44;12.63;;;8.32;;
23169;SDS011;11753;43.144;24.714;2023-05-10T04:29:45;10.88;;;8.02;;
23169;SDS011;11753;43.144;24.714;2023-05-10T04:30:46;12.38;;;8.38;;
23169;SDS011;11753;43.144;24.714;2023-05-10T04:31:48;10.73;;;8.05;;
23169;SDS011;11753;43.144;24.714;2023-05-10T04:32:49;12.05;;;7.82;;
23169;SDS011;11753;43.144;24.714;2023-05-10T04:33:49;11.60;;;8.18;;
23169;SDS011;11753;43.144;24.714;2023-05-10T04:34:50;11.38;;;8.85;;
23169;SDS011;11753;43.144;24.714;2023-05-10T04:35:51;12.02;;;7.90;;
23169;SDS011;11753;43.144;24.714;2023-05-10T04:36:52;12.82;;;8.60;;
23169;SDS011;11753;43.144;24.714;2023-05-10T04:37:53;13.70;;;8.15;;
23169;SDS011;11753;43.144;24.714;2023-05-10T04:38:54;12.57;;;8.57;;
23169;SDS011;11753;43.144;24.714;2023-05-10T04:39:55;14.43;;;9.15;;
23169;SDS011;11753;43.144;24.714;2023-05-10T04:41:09;12.18;;;8.40;;
23169;SDS011;11753;43.144;24.714;2023-05-10T04:42:10;14.93;;;7.60;;
23169;SDS011;11753;43.144;24.714;2023-05-10T04:43:12;10.48;;;7.45;;
23169;SDS011;11753;43.144;24.714;2023-05-10T04:44:14;14.82;;;8.93;;
23169;SDS011;11753;43.144;24.714;2023-05-10T04:45:15;10.50;;;7.30;;
23169;SDS011;11753;43.144;24.714;2023-05-10T04:46:16;9.68;;;7.28;;
23169;SDS011;11753;43.144;24.714;2023-05-10T04:47:17;12.93;;;8.45;;
23169;SDS011;11753;43.144;24.714;2023-05-10T04:48:18;12.60;;;8.18;;
23169;SDS011;11753;43.144;24.714;2023-05-10T04:49:18;10.77;;;7.63;;
23169;SDS011;11753;43.144;24.714;2023-05-10T04:50:20;15.00;;;8.75;;
23169;SDS011;11753;43.144;24.714;2023-05-10T04:51:21;10.75;;;7.20;;
23169;SDS011;11753;43.144;24.714;2023-05-10T04:52:22;10.13;;;8.07;;
23169;SDS011;11753;43.144;24.714;2023-05-10T04:53:23;9.48;;;7.40;;
23169;SDS011;11753;43.144;24.714;2023-05-10T04:54:24;11.48;;;7.32;;
23169;SDS011;11753;43.144;24.714;2023-05-10T04:55:25;12.02;;;7.75;;
23169;SDS011;11753;43.144;24.714;2023-05-10T04:56:27;11.48;;;7.03;;
23169;SDS011;11753;43.144;24.714;2023-05-10T04:57:28;8.98;;;7.05;;
23169;SDS011;11753;43.144;24.714;2023-05-10T04:58:29;10.40;;;7.25;;
23169;SDS011;11753;43.144;24.714;2023-05-10T04:59:30;10.02;;;7.68;;
23169;SDS011;11753;43.144;24.714;2023-05-10T05:00:31;10.15;;;7.45;;
23169;SDS011;11753;43.144;24.714;2023-05-10T05:01:32;11.00;;;7.43;;
23169;SDS011;11753;43.144;24.714;2023-05-10T05:02:33;9.35;;;6.65;;
23169;SDS011;11753;43.144;24.714;2023-05-10T05:03:34;9.82;;;6.15;;
23169;SDS011;11753;43.144;24.714;2023-05-10T05:04:36;10.30;;;6.60;;
23169;SDS011;11753;43.144;24.714;2023-05-10T05:05:37;10.20;;;7.03;;
23169;SDS011;11753;43.144;24.714;2023-05-10T05:06:37;10.52;;;6.43;;
23169;SDS011;11753;43.144;24.714;2023-05-10T05:07:38;9.65;;;7.05;;
23169;SDS011;11753;43.144;24.714;2023-05-10T05:08:40;11.38;;;6.65;;
23169;SDS011;11753;43.144;24.714;2023-05-10T05:09:41;11.95;;;6.85;;
23169;SDS011;11753;43.144;24.714;2023-05-10T05:10:42;11.65;;;7.03;;
23169;SDS011;11753;43.144;24.714;2023-05-10T05:11:45;8.77;;;6.38;;
23169;SDS011;11753;43.144;24.714;2023-05-10T05:12:46;11.07;;;6.55;;
23169;SDS011;11753;43.144;24.714;2023-05-10T05:13:47;8.05;;;6.38;;
23169;SDS011;11753;43.144;24.714;2023-05-10T05:14:47;8.23;;;6.03;;
23169;SDS011;11753;43.144;24.714;2023-05-10T05:15:48;8.23;;;6.57;;
23169;SDS011;11753;43.144;24.714;2023-05-10T05:16:49;8.30;;;6.40;;
23169;SDS011;11753;43.144;24.714;2023-05-10T05:17:51;9.77;;;6.47;;
23169;SDS011;11753;43.144;24.714;2023-05-10T05:18:51;12.15;;;6.88;;
23169;SDS011;11753;43.144;24.714;2023-05-10T05:19:52;9.70;;;6.13;;
23169;SDS011;11753;43.144;24.714;2023-05-10T05:20:52;8.20;;;5.68;;
23169;SDS011;11753;43.144;24.714;2023-05-10T05:21:53;8.57;;;5.93;;
23169;SDS011;11753;43.144;24.714;2023-05-10T05:22:54;7.95;;;5.03;;
23169;SDS011;11753;43.144;24.714;2023-05-10T05:23:55;8.93;;;6.45;;
23169;SDS011;11753;43.144;24.714;2023-05-10T05:24:56;9.20;;;6.15;;
23169;SDS011;11753;43.144;24.714;2023-05-10T05:25:58;9.40;;;6.55;;
23169;SDS011;11753;43.144;24.714;2023-05-10T05:26:59;8.50;;;6.22;;
23169;SDS011;11753;43.144;24.714;2023-05-10T05:28:01;8.55;;;6.00;;
23169;SDS011;11753;43.144;24.714;2023-05-10T05:29:02;9.13;;;6.10;;
23169;SDS011;11753;43.144;24.714;2023-05-10T05:30:03;9.38;;;6.30;;
23169;SDS011;11753;43.144;24.714;2023-05-10T05:31:04;10.40;;;6.43;;
23169;SDS011;11753;43.144;24.714;2023-05-10T05:32:06;12.90;;;6.20;;
23169;SDS011;11753;43.144;24.714;2023-05-10T05:33:08;6.72;;;5.55;;
23169;SDS011;11753;43.144;24.714;2023-05-10T05:34:09;7.72;;;5.47;;
23169;SDS011;11753;43.144;24.714;2023-05-10T05:35:10;8.25;;;5.50;;
23169;SDS011;11753;43.144;24.714;2023-05-10T05:36:11;8.40;;;5.32;;
23169;SDS011;11753;43.144;24.714;2023-05-10T05:37:13;10.57;;;5.80;;
23169;SDS011;11753;43.144;24.714;2023-05-10T05:38:14;9.05;;;6.22;;
23169;SDS011;11753;43.144;24.714;2023-05-10T05:39:15;8.23;;;5.30;;
23169;SDS011;11753;43.144;24.714;2023-05-10T05:40:17;8.98;;;5.88;;
23169;SDS011;11753;43.144;24.714;2023-05-10T05:41:18;7.03;;;4.85;;
23169;SDS011;11753;43.144;24.714;2023-05-10T05:42:18;9.63;;;5.85;;
23169;SDS011;11753;43.144;24.714;2023-05-10T05:43:19;9.45;;;5.78;;
23169;SDS011;11753;43.144;24.714;2023-05-10T05:44:20;10.95;;;6.10;;
23169;SDS011;11753;43.144;24.714;2023-05-10T05:45:21;9.63;;;6.80;;
23169;SDS011;11753;43.144;24.714;2023-05-10T05:46:22;7.88;;;5.32;;
23169;SDS011;11753;43.144;24.714;2023-05-10T05:47:23;7.53;;;5.32;;
23169;SDS011;11753;43.144;24.714;2023-05-10T05:48:23;10.77;;;7.10;;
23169;SDS011;11753;43.144;24.714;2023-05-10T05:49:25;14.73;;;8.70;;
23169;SDS011;11753;43.144;24.714;2023-05-10T05:50:26;16.20;;;7.55;;
23169;SDS011;11753;43.144;24.714;2023-05-10T05:51:27;11.98;;;7.35;;
23169;SDS011;11753;43.144;24.714;2023-05-10T05:52:28;9.27;;;6.43;;
23169;SDS011;11753;43.144;24.714;2023-05-10T05:53:28;9.05;;;5.63;;
23169;SDS011;11753;43.144;24.714;2023-05-10T05:54:29;6.75;;;5.55;;
23169;SDS011;11753;43.144;24.714;2023-05-10T05:55:31;10.02;;;6.93;;
23169;SDS011;11753;43.144;24.714;2023-05-10T05:56:32;7.72;;;5.53;;
23169;SDS011;11753;43.144;24.714;2023-05-10T05:57:32;8.70;;;5.20;;
23169;SDS011;11753;43.144;24.714;2023-05-10T05:58:34;10.88;;;5.57;;
23169;SDS011;11753;43.144;24.714;2023-05-10T05:59:34;9.80;;;6.32;;
23169;SDS011;11753;43.144;24.714;2023-05-10T06:00:35;9.90;;;6.55;;
23169;SDS011;11753;43.144;24.714;2023-05-10T06:01:35;9.40;;;6.28;;
23169;SDS011;11753;43.144;24.714;2023-05-10T06:02:36;11.00;;;5.63;;
23169;SDS011;11753;43.144;24.714;2023-05-10T06:03:37;9.40;;;5.85;;
23169;SDS011;11753;43.144;24.714;2023-05-10T06:04:38;9.07;;;5.63;;
23169;SDS011;11753;43.144;24.714;2023-05-10T06:05:39;8.30;;;5.70;;
23169;SDS011;11753;43.144;24.714;2023-05-10T06:06:40;10.65;;;4.70;;
23169;SDS011;11753;43.144;24.714;2023-05-10T06:07:40;7.50;;;5.05;;
23169;SDS011;11753;43.144;24.714;2023-05-10T06:08:44;7.78;;;4.90;;
23169;SDS011;11753;43.144;24.714;2023-05-10T06:09:45;8.10;;;5.50;;
23169;SDS011;11753;43.144;24.714;2023-05-10T06:10:46;9.40;;;5.85;;
23169;SDS011;11753;43.144;24.714;2023-05-10T06:11:47;10.20;;;5.15;;
23169;SDS011;11753;43.144;24.714;2023-05-10T06:12:47;8.50;;;4.75;;
23169;SDS011;11753;43.144;24.714;2023-05-10T06:13:48;7.00;;;4.82;;
23169;SDS011;11753;43.144;24.714;2023-05-10T06:14:49;9.23;;;4.55;;
23169;SDS011;11753;43.144;24.714;2023-05-10T06:15:50;6.95;;;4.60;;
23169;SDS011;11753;43.144;24.714;2023-05-10T06:16:51;10.05;;;5.10;;
23169;SDS011;11753;43.144;24.714;2023-05-10T06:17:52;6.07;;;4.47;;
23169;SDS011;11753;43.144;24.714;2023-05-10T06:18:53;8.00;;;5.10;;
23169;SDS011;11753;43.144;24.714;2023-05-10T06:19:54;8.57;;;5.45;;
23169;SDS011;11753;43.144;24.714;2023-05-10T06:20:56;7.68;;;4.93;;
23169;SDS011;11753;43.144;24.714;2023-05-10T06:21:57;6.93;;;4.80;;
23169;SDS011;11753;43.144;24.714;2023-05-10T06:22:58;6.93;;;4.93;;
23169;SDS011;11753;43.144;24.714;2023-05-10T06:23:59;6.60;;;4.88;;
23169;SDS011;11753;43.144;24.714;2023-05-10T06:25:01;6.45;;;4.00;;
23169;SDS011;11753;43.144;24.714;2023-05-10T06:26:02;6.22;;;4.40;;
23169;SDS011;11753;43.144;24.714;2023-05-10T06:27:03;5.45;;;4.30;;
23169;SDS011;11753;43.144;24.714;2023-05-10T06:28:04;5.25;;;3.85;;